Time;durP1;ratioP1;P1;durP2;ratioP2;P2;SDS_P1;SDS_P2;PMS_P1;PMS_P2;Temp;Humidity;BMP_temperature;BMP_pressure;BME280_temperature;BME280_humidity;BME280_pressure;Samples;Min_cycle;Max_cycle;Signal;HPM_P1;HPM_P2
2023/08/18 00:01:01;;;;;;;8.80;2.90;;;;;;;18.37;100.00;100387.03;109076;1259;68940;-63
2023/08/18 00:03:47;;;;;;;8.20;2.70;;;;;;;18.35;100.00;100385.48;108989;1260;71536;-63
2023/08/18 00:06:35;;;;;;;8.30;2.70;;;;;;;18.33;100.00;100392.52;108997;1258;58078;-62
2023/08/18 00:09:22;;;;;;;10.50;2.80;;;;;;;18.33;100.00;100393.60;109041;1258;58905;-61
2023/08/18 00:12:08;;;;;;;10.20;3.10;;;;;;;18.33;100.00;100389.10;109106;1257;72919;-63
2023/08/18 00:14:55;;;;;;;9.30;2.80;;;;;;;18.33;100.00;100389.11;109133;1257;67947;-64
2023/08/18 00:17:42;;;;;;;8.90;2.50;;;;;;;18.34;100.00;100393.14;108992;1257;73855;-63
2023/08/18 00:20:28;;;;;;;8.90;2.60;;;;;;;18.34;100.00;100387.05;109139;1257;59524;-64
2023/08/18 00:23:14;;;;;;;9.20;2.80;;;;;;;18.35;100.00;100385.27;109127;1257;61249;-62
2023/08/18 00:26:01;;;;;;;9.80;2.50;;;;;;;18.39;100.00;100387.98;109098;1257;72748;-61
2023/08/18 00:28:47;;;;;;;11.20;2.80;;;;;;;18.41;100.00;100383.51;109086;1257;67696;-63
2023/08/18 00:31:33;;;;;;;8.30;2.70;;;;;;;18.42;100.00;100379.57;109093;1257;73740;-62
2023/08/18 00:34:20;;;;;;;12.40;2.90;;;;;;;18.43;100.00;100382.13;109013;1257;58498;-63
2023/08/18 00:37:06;;;;;;;11.40;3.00;;;;;;;18.44;100.00;100383.52;109141;1257;60110;-62
2023/08/18 00:39:54;;;;;;;10.20;2.80;;;;;;;18.45;100.00;100385.35;109072;1257;73571;-61
2023/08/18 00:42:41;;;;;;;9.60;2.70;;;;;;;18.48;100.00;100382.21;109153;1257;67728;-63
2023/08/18 00:45:28;;;;;;;11.10;3.00;;;;;;;18.50;100.00;100385.50;108911;1258;73556;-62
2023/08/18 00:48:15;;;;;;;10.60;2.80;;;;;;;18.53;100.00;100381.27;109037;1258;59480;-61
2023/08/18 00:51:02;;;;;;;7.70;2.90;;;;;;;18.55;100.00;100377.29;108990;1260;58800;-63
2023/08/18 00:53:48;;;;;;;9.00;3.10;;;;;;;18.59;100.00;100377.98;109084;1258;72897;-62
2023/08/18 00:56:35;;;;;;;11.30;3.10;;;;;;;18.60;100.00;100380.36;109032;1258;66764;-63
2023/08/18 00:59:22;;;;;;;11.80;3.00;;;;;;;18.62;100.00;100372.46;109093;1258;73706;-63
2023/08/18 01:02:08;;;;;;;9.30;3.20;;;;;;;18.62;100.00;100371.75;109099;1258;58114;-64
2023/08/18 01:05:00;;;;;;;17.00;3.40;;;;;;;18.63;100.00;100370.70;109022;1258;60339;-64
2023/08/18 01:07:46;;;;;;;8.80;2.90;;;;;;;18.62;100.00;100370.44;109038;1258;70461;-62
2023/08/18 01:10:49;;;;;;;12.10;3.50;;;;;;;18.62;100.00;100367.41;109028;1258;69215;-64
2023/08/18 01:13:58;;;;;;;9.90;3.10;;;;;;;18.62;100.00;100372.83;109007;1258;72747;-64
2023/08/18 01:16:56;;;;;;;8.80;3.20;;;;;;;18.61;100.00;100375.41;109091;1258;58096;-64
2023/08/18 01:19:44;;;;;;;10.00;3.50;;;;;;;18.61;100.00;100371.23;108991;1259;61259;-62
2023/08/18 01:22:34;;;;;;;13.30;3.80;;;;;;;18.62;100.00;100368.35;109007;1258;73771;-62
2023/08/18 01:25:21;;;;;;;11.30;3.80;;;;;;;18.60;100.00;100355.74;109028;1258;67563;-66
2023/08/18 01:28:07;;;;;;;12.40;3.30;;;;;;;18.63;100.00;100359.05;109049;1258;72364;-63
2023/08/18 01:30:55;;;;;;;11.70;3.60;;;;;;;18.62;100.00;100356.99;109064;1257;60603;-63
2023/08/18 01:33:54;;;;;;;10.90;3.40;;;;;;;18.60;100.00;100352.52;109080;1257;60164;-61
2023/08/18 01:36:44;;;;;;;9.10;3.30;;;;;;;18.59;100.00;100341.19;109119;1257;70502;-60
2023/08/18 01:39:31;;;;;;;9.30;3.60;;;;;;;18.59;100.00;100334.31;109063;1258;68880;-62
2023/08/18 01:42:20;;;;;;;10.50;3.90;;;;;;;18.58;100.00;100327.95;109095;1257;73517;-62
2023/08/18 01:45:11;;;;;;;9.70;3.70;;;;;;;18.58;100.00;100320.91;109052;1257;59688;-63
2023/08/18 01:47:57;;;;;;;10.30;3.30;;;;;;;18.60;100.00;100317.67;109115;1257;61195;-62
2023/08/18 01:50:43;;;;;;;11.70;3.90;;;;;;;18.60;100.00;100317.48;109098;1257;73851;-63
2023/08/18 01:53:30;;;;;;;10.80;3.80;;;;;;;18.62;100.00;100308.88;109111;1257;67901;-63
2023/08/18 01:56:16;;;;;;;12.70;4.30;;;;;;;18.63;100.00;100305.48;109077;1257;73689;-62
2023/08/18 01:59:04;;;;;;;11.00;3.70;;;;;;;18.64;100.00;100301.31;108957;1257;58282;-63
2023/08/18 02:01:50;;;;;;;11.30;4.40;;;;;;;18.63;100.00;100297.41;109036;1257;60414;-63
2023/08/18 02:04:36;;;;;;;11.80;4.20;;;;;;;18.60;100.00;100293.55;109109;1257;72192;-63
2023/08/18 02:07:23;;;;;;;9.60;3.60;;;;;;;18.59;100.00;100294.39;109082;1257;66454;-63
2023/08/18 02:10:09;;;;;;;10.50;3.90;;;;;;;18.58;100.00;100299.89;109119;1257;72721;-62
2023/08/18 02:12:55;;;;;;;12.20;4.20;;;;;;;18.57;100.00;100303.09;109106;1257;59190;-63
2023/08/18 02:15:48;;;;;;;12.70;4.70;;;;;;;18.54;100.00;100299.75;109089;1258;60213;-62
2023/08/18 02:18:34;;;;;;;13.50;4.50;;;;;;;18.53;100.00;100293.75;109094;1258;73202;-62
2023/08/18 02:21:20;;;;;;;11.50;4.10;;;;;;;18.52;100.00;100299.09;109061;1258;67043;-61
2023/08/18 02:24:07;;;;;;;9.70;4.20;;;;;;;18.50;100.00;100301.85;109040;1259;73888;-63
2023/08/18 02:26:55;;;;;;;10.20;3.90;;;;;;;18.48;100.00;100306.73;108993;1258;60557;-62
2023/08/18 02:29:42;;;;;;;12.20;4.00;;;;;;;18.45;100.00;100316.20;109070;1258;61361;-62
2023/08/18 02:32:28;;;;;;;10.20;4.10;;;;;;;18.44;100.00;100318.48;109084;1258;72954;-62
2023/08/18 02:35:14;;;;;;;10.30;4.10;;;;;;;18.43;100.00;100317.27;109044;1258;68893;-62
2023/08/18 02:38:00;;;;;;;12.80;4.10;;;;;;;18.42;100.00;100311.73;109030;1259;73465;-65
2023/08/18 02:40:47;;;;;;;11.60;4.00;;;;;;;18.39;100.00;100311.80;109122;1257;58353;-61
2023/08/18 02:43:33;;;;;;;9.30;4.20;;;;;;;18.36;100.00;100312.64;109040;1258;61770;-63
2023/08/18 02:46:20;;;;;;;8.30;3.80;;;;;;;18.38;100.00;100321.60;108992;1258;72830;-61
2023/08/18 02:49:06;;;;;;;11.80;5.10;;;;;;;18.38;100.00;100325.17;109098;1258;68645;-62
2023/08/18 02:51:53;;;;;;;11.80;4.50;;;;;;;18.38;100.00;100322.17;109027;1258;73754;-63
2023/08/18 02:54:38;;;;;;;10.40;4.80;;;;;;;18.37;100.00;100312.38;109047;1258;59608;-65
2023/08/18 02:57:25;;;;;;;12.60;4.80;;;;;;;18.36;100.00;100309.58;109051;1258;60281;-62
2023/08/18 03:00:12;;;;;;;13.60;4.80;;;;;;;18.35;100.00;100311.29;109008;1258;72971;-63
2023/08/18 03:02:58;;;;;;;13.00;5.20;;;;;;;18.36;100.00;100310.17;109026;1260;68789;-63
2023/08/18 03:05:46;;;;;;;11.60;4.50;;;;;;;18.36;100.00;100315.57;109067;1259;73704;-62
2023/08/18 03:08:36;;;;;;;13.00;4.90;;;;;;;18.34;100.00;100315.52;109035;1258;58204;-62
2023/08/18 03:11:23;;;;;;;11.40;4.50;;;;;;;18.34;100.00;100313.53;109036;1258;60169;-64
2023/08/18 03:14:09;;;;;;;12.90;5.40;;;;;;;18.30;100.00;100318.80;109089;1258;74207;-62
2023/08/18 03:16:55;;;;;;;14.30;6.20;;;;;;;18.29;100.00;100314.34;109049;1258;67010;-64
2023/08/18 03:19:42;;;;;;;17.50;6.50;;;;;;;18.25;100.00;100311.90;109033;1258;73584;-64
2023/08/18 03:22:29;;;;;;;12.60;5.90;;;;;;;18.26;100.00;100318.63;109005;1258;59373;-62
2023/08/18 03:25:16;;;;;;;15.50;5.90;;;;;;;18.24;100.00;100319.13;108990;1257;61092;-64
2023/08/18 03:28:03;;;;;;;14.60;6.50;;;;;;;18.22;100.00;100315.39;109136;1257;72811;-63
2023/08/18 03:30:49;;;;;;;13.40;6.20;;;;;;;18.21;100.00;100311.58;109112;1257;68758;-65
2023/08/18 03:33:36;;;;;;;13.80;6.10;;;;;;;18.20;100.00;100316.28;109111;1257;71174;-63
2023/08/18 03:36:24;;;;;;;13.70;6.70;;;;;;;18.16;100.00;100317.98;109038;1257;60281;-64
2023/08/18 03:39:12;;;;;;;13.60;6.80;;;;;;;18.14;100.00;100317.52;109179;1257;60138;-63
2023/08/18 03:41:58;;;;;;;13.60;6.60;;;;;;;18.13;100.00;100319.92;109107;1257;74037;-62
2023/08/18 03:44:44;;;;;;;14.20;6.90;;;;;;;18.12;100.00;100322.77;109136;1257;69292;-62
2023/08/18 03:47:31;;;;;;;12.10;6.40;;;;;;;18.11;100.00;100325.53;109050;1258;73398;-62
2023/08/18 03:50:21;;;;;;;13.40;7.10;;;;;;;18.11;100.00;100325.08;108926;1258;59412;-62
2023/08/18 03:53:08;;;;;;;12.20;6.20;;;;;;;18.10;100.00;100330.36;109092;1257;61103;-63
2023/08/18 03:55:59;;;;;;;12.10;6.00;;;;;;;18.09;100.00;100326.85;109122;1257;72287;-61
2023/08/18 03:58:46;;;;;;;12.40;6.30;;;;;;;18.08;100.00;100327.35;109136;1257;67893;-63
2023/08/18 04:01:32;;;;;;;13.20;6.20;;;;;;;18.08;100.00;100328.59;109117;1257;71528;-62
2023/08/18 04:04:19;;;;;;;12.30;5.80;;;;;;;18.08;100.00;100329.42;109087;1257;60495;-61
2023/08/18 04:07:05;;;;;;;10.20;5.50;;;;;;;18.09;100.00;100334.55;109028;1258;59953;-62
2023/08/18 04:09:51;;;;;;;11.00;5.80;;;;;;;18.10;100.00;100330.33;108981;1257;71642;-62
2023/08/18 04:12:37;;;;;;;15.40;5.80;;;;;;;18.12;100.00;100327.43;108985;1258;67672;-62
2023/08/18 04:15:24;;;;;;;13.60;5.80;;;;;;;18.14;100.00;100323.98;108954;1257;73769;-63
2023/08/18 04:18:10;;;;;;;12.10;5.90;;;;;;;18.17;100.00;100322.61;109050;1257;59414;-63
2023/08/18 04:20:56;;;;;;;12.30;5.70;;;;;;;18.18;100.00;100332.52;109087;1257;59906;-64
2023/08/18 04:23:43;;;;;;;11.30;5.50;;;;;;;18.21;100.00;100340.13;109079;1257;72357;-62
2023/08/18 04:26:31;;;;;;;13.20;5.70;;;;;;;18.26;100.00;100347.12;109122;1257;68984;-63
2023/08/18 04:29:17;;;;;;;10.80;5.70;;;;;;;18.30;100.00;100344.39;109067;1257;73472;-64
2023/08/18 04:32:04;;;;;;;9.60;4.70;;;;;;;18.35;100.00;100342.20;109081;1257;59404;-63
2023/08/18 04:34:50;;;;;;;10.60;5.30;;;;;;;18.43;100.00;100341.45;109098;1257;60322;-64
2023/08/18 04:37:36;;;;;;;10.20;5.10;;;;;;;18.48;100.00;100339.04;108922;1257;73826;-63
2023/08/18 04:40:23;;;;;;;13.80;5.30;;;;;;;18.52;100.00;100336.23;109068;1257;66591;-64
2023/08/18 04:43:11;;;;;;;9.20;4.30;;;;;;;18.57;100.00;100340.95;108952;1257;73606;-63
2023/08/18 04:45:58;;;;;;;9.90;4.70;;;;;;;18.62;100.00;100346.52;109028;1257;60316;-64
2023/08/18 04:48:44;;;;;;;12.00;5.00;;;;;;;18.67;100.00;100349.09;109074;1257;59023;-63
2023/08/18 04:51:31;;;;;;;16.90;5.50;;;;;;;18.71;100.00;100351.09;108927;1260;73376;-63
2023/08/18 04:54:17;;;;;;;17.20;5.30;;;;;;;18.78;100.00;100346.11;108917;1258;68902;-64
2023/08/18 04:57:04;;;;;;;12.00;5.60;;;;;;;18.82;100.00;100350.35;108961;1258;72664;-63
2023/08/18 04:59:51;;;;;;;9.10;4.80;;;;;;;18.87;100.00;100350.05;108984;1258;59608;-63
2023/08/18 05:02:37;;;;;;;10.30;5.70;;;;;;;18.93;100.00;100347.55;108944;1258;60323;-64
2023/08/18 05:05:23;;;;;;;12.00;5.30;;;;;;;19.01;100.00;100334.43;109034;1258;73706;-62
2023/08/18 05:08:10;;;;;;;10.40;5.60;;;;;;;19.13;100.00;100334.84;109015;1258;67786;-61
2023/08/18 05:11:02;;;;;;;10.30;4.90;;;;;;;19.22;100.00;100332.15;108935;1258;72669;-61
2023/08/18 05:13:48;;;;;;;10.20;5.10;;;;;;;19.29;100.00;100323.84;108996;1258;59438;-61
2023/08/18 05:16:34;;;;;;;8.30;4.10;;;;;;;19.36;100.00;100327.23;109007;1257;59243;-63
2023/08/18 05:19:20;;;;;;;10.00;4.80;;;;;;;19.45;100.00;100336.55;109030;1258;74034;-62
2023/08/18 05:22:06;;;;;;;10.10;4.90;;;;;;;19.55;100.00;100340.45;109035;1258;68877;-63
2023/08/18 05:24:53;;;;;;;11.20;5.60;;;;;;;19.63;100.00;100345.79;108968;1258;72637;-62
2023/08/18 05:27:39;;;;;;;12.00;6.20;;;;;;;19.69;100.00;100356.52;109016;1258;60410;-62
2023/08/18 05:30:26;;;;;;;13.20;5.70;;;;;;;19.74;100.00;100368.21;109034;1258;60290;-62
2023/08/18 05:33:12;;;;;;;13.00;5.90;;;;;;;19.80;100.00;100374.63;109026;1258;72795;-62
2023/08/18 05:35:59;;;;;;;11.00;4.80;;;;;;;19.86;100.00;100375.54;109022;1258;67757;-62
2023/08/18 05:38:47;;;;;;;11.00;5.50;;;;;;;19.94;100.00;100369.64;109022;1258;71857;-62
2023/08/18 05:41:33;;;;;;;17.20;6.30;;;;;;;20.01;100.00;100372.06;109017;1259;60541;-61
2023/08/18 05:44:19;;;;;;;31.70;7.50;;;;;;;20.10;100.00;100367.02;109003;1259;60110;-64
2023/08/18 05:47:05;;;;;;;22.10;7.30;;;;;;;20.19;100.00;100366.08;108999;1259;73832;-63
2023/08/18 05:49:52;;;;;;;15.50;7.00;;;;;;;20.27;100.00;100376.15;108985;1259;68863;-62
2023/08/18 05:52:38;;;;;;;18.20;6.60;;;;;;;20.34;100.00;100379.68;109029;1258;71290;-62
2023/08/18 05:55:25;;;;;;;19.10;7.20;;;;;;;20.42;100.00;100377.50;109010;1258;59389;-62
2023/08/18 05:58:12;;;;;;;12.80;6.30;;;;;;;20.49;100.00;100375.64;109044;1258;60050;-63
2023/08/18 06:00:58;;;;;;;14.30;7.10;;;;;;;20.57;100.00;100374.91;109026;1258;73813;-62
2023/08/18 06:03:44;;;;;;;17.80;7.90;;;;;;;20.65;100.00;100364.38;108985;1259;67662;-61
2023/08/18 06:06:32;;;;;;;28.40;16.90;;;;;;;20.71;100.00;100360.63;109032;1258;71432;-63
2023/08/18 06:09:20;;;;;;;28.70;17.80;;;;;;;20.77;100.00;100356.08;109001;1259;59493;-63
2023/08/18 06:12:07;;;;;;;17.30;8.80;;;;;;;20.83;100.00;100358.63;108967;1259;61052;-61
2023/08/18 06:14:53;;;;;;;33.00;17.60;;;;;;;20.86;100.00;100364.30;109044;1259;70815;-61
2023/08/18 06:17:40;;;;;;;21.90;11.20;;;;;;;20.88;100.00;100373.45;109051;1259;68251;-62
2023/08/18 06:20:27;;;;;;;20.10;9.20;;;;;;;20.88;100.00;100379.27;109024;1259;73482;-62
2023/08/18 06:23:13;;;;;;;19.60;10.00;;;;;;;20.85;100.00;100396.23;108935;1259;58602;-61
2023/08/18 06:25:59;;;;;;;20.10;10.90;;;;;;;20.85;100.00;100398.55;108946;1259;60536;-61
2023/08/18 06:28:45;;;;;;;19.50;10.60;;;;;;;20.87;100.00;100395.20;108958;1259;74052;-61
2023/08/18 06:31:32;;;;;;;20.40;10.30;;;;;;;20.91;100.00;100389.36;109011;1259;67590;-61
2023/08/18 06:34:18;;;;;;;19.20;11.50;;;;;;;20.92;100.00;100398.14;108928;1260;73591;-69
2023/08/18 06:37:04;;;;;;;19.70;11.60;;;;;;;21.01;100.00;100405.23;108980;1258;59339;-71
2023/08/18 06:39:53;;;;;;;17.60;10.20;;;;;;;21.07;100.00;100400.69;108798;1259;199129;-68
2023/08/18 06:42:40;;;;;;;20.60;10.60;;;;;;;21.18;100.00;100386.90;109042;1258;71569;-69
2023/08/18 06:45:26;;;;;;;19.00;11.20;;;;;;;21.28;100.00;100388.98;108962;1258;67773;-69
2023/08/18 06:48:12;;;;;;;21.20;10.10;;;;;;;21.31;100.00;100396.45;109054;1258;73088;-69
2023/08/18 06:50:59;;;;;;;20.50;10.20;;;;;;;21.37;100.00;100388.67;109013;1258;60719;-70
2023/08/18 06:53:45;;;;;;;19.50;9.50;;;;;;;21.48;100.00;100383.65;109040;1258;59043;-69
2023/08/18 06:56:31;;;;;;;19.10;10.40;;;;;;;21.62;100.00;100380.13;109046;1258;74014;-71
2023/08/18 06:59:18;;;;;;;17.00;10.10;;;;;;;21.84;100.00;100378.95;109033;1258;66686;-71
2023/08/18 07:02:04;;;;;;;17.40;9.80;;;;;;;22.00;100.00;100381.19;109015;1258;73576;-69
2023/08/18 07:04:51;;;;;;;16.80;9.50;;;;;;;22.19;100.00;100379.11;109000;1258;60327;-68
2023/08/18 07:07:37;;;;;;;20.80;10.30;;;;;;;22.36;99.89;100377.48;109003;1258;61084;-69
2023/08/18 07:10:26;;;;;;;16.70;10.00;;;;;;;22.38;98.97;100380.89;109016;1258;71671;-69
2023/08/18 07:13:12;;;;;;;19.60;10.30;;;;;;;22.34;98.34;100373.83;109104;1257;66649;-71
2023/08/18 07:15:58;;;;;;;14.30;8.90;;;;;;;22.24;98.66;100379.52;109113;1257;73486;-70
2023/08/18 07:18:45;;;;;;;18.30;8.90;;;;;;;22.19;99.45;100378.94;109153;1257;59547;-69
2023/08/18 07:21:31;;;;;;;20.90;10.10;;;;;;;22.20;99.41;100371.58;109094;1257;59845;-68
2023/08/18 07:24:17;;;;;;;16.40;9.70;;;;;;;22.17;99.22;100374.45;109078;1257;70790;-69
2023/08/18 07:27:04;;;;;;;16.70;8.90;;;;;;;22.05;98.88;100373.84;109102;1257;66486;-71
2023/08/18 07:29:50;;;;;;;14.70;9.20;;;;;;;21.95;99.61;100377.79;109092;1257;71197;-70
2023/08/18 07:32:36;;;;;;;15.10;9.00;;;;;;;21.85;99.99;100375.66;109020;1257;59628;-69
2023/08/18 07:35:23;;;;;;;14.50;8.30;;;;;;;21.75;100.00;100365.95;109119;1257;59185;-69
2023/08/18 07:38:10;;;;;;;15.50;8.70;;;;;;;21.77;100.00;100366.60;109149;1257;74096;-71
2023/08/18 07:40:56;;;;;;;18.30;8.40;;;;;;;21.86;100.00;100368.91;109063;1257;68182;-70
2023/08/18 07:43:43;;;;;;;20.50;8.00;;;;;;;22.05;100.00;100370.66;109095;1257;72500;-70
2023/08/18 07:46:30;;;;;;;18.00;7.90;;;;;;;22.27;99.70;100363.49;109011;1258;60621;-69
2023/08/18 07:49:16;;;;;;;18.50;7.90;;;;;;;22.52;98.05;100360.05;109034;1257;59304;-64
2023/08/18 07:52:03;;;;;;;15.50;7.70;;;;;;;22.74;96.53;100365.16;109092;1257;73845;-64
2023/08/18 07:54:50;;;;;;;16.10;7.80;;;;;;;23.03;95.26;100356.23;109060;1257;67604;-65
2023/08/18 07:57:37;;;;;;;13.80;6.70;;;;;;;23.45;93.16;100349.19;109113;1257;72691;-66
2023/08/18 08:00:26;;;;;;;13.80;7.30;;;;;;;23.81;90.50;100344.64;109062;1257;58800;-64
2023/08/18 08:03:12;;;;;;;13.90;7.00;;;;;;;24.25;89.25;100339.91;109122;1257;59975;-65
2023/08/18 08:05:58;;;;;;;12.90;6.30;;;;;;;24.67;85.47;100339.20;109024;1257;73118;-63
2023/08/18 08:08:45;;;;;;;13.50;6.60;;;;;;;25.04;83.38;100335.11;108867;1260;65806;-63
2023/08/18 08:11:31;;;;;;;12.70;6.70;;;;;;;25.61;80.59;100334.83;108904;1260;71176;-65
2023/08/18 08:14:19;;;;;;;13.90;5.80;;;;;;;27.02;76.72;100338.16;108916;1260;58264;-63
2023/08/18 08:17:06;;;;;;;9.60;5.60;;;;;;;28.75;69.83;100338.02;108882;1260;61648;-64
2023/08/18 08:19:56;;;;;;;12.10;5.40;;;;;;;30.54;62.67;100339.65;108906;1260;71642;-64
2023/08/18 08:22:45;;;;;;;11.20;4.80;;;;;;;32.08;55.29;100334.84;108895;1260;68004;-62
2023/08/18 08:25:34;;;;;;;12.20;5.30;;;;;;;33.45;52.76;100330.61;108860;1260;73699;-63
2023/08/18 08:28:20;;;;;;;11.80;5.00;;;;;;;34.40;48.68;100332.88;108796;1261;57695;-65
2023/08/18 08:31:09;;;;;;;9.40;4.20;;;;;;;34.19;47.42;100333.46;108879;1260;60733;-64
2023/08/18 08:33:55;;;;;;;10.90;4.60;;;;;;;33.49;48.07;100333.08;108922;1260;73372;-64
2023/08/18 08:36:42;;;;;;;11.10;5.00;;;;;;;32.70;49.55;100333.05;108897;1260;66605;-63
2023/08/18 08:39:28;;;;;;;11.20;5.50;;;;;;;31.97;51.11;100334.05;108967;1258;73162;-63
2023/08/18 08:42:14;;;;;;;12.00;5.20;;;;;;;31.22;52.65;100335.27;109004;1259;57981;-65
2023/08/18 08:45:01;;;;;;;12.10;5.40;;;;;;;30.62;54.17;100333.79;109058;1258;60665;-64
2023/08/18 08:47:48;;;;;;;13.20;6.10;;;;;;;30.12;55.96;100329.95;109045;1258;73762;-63
2023/08/18 08:50:40;;;;;;;11.70;5.80;;;;;;;29.74;57.09;100332.28;109000;1259;67604;-62
2023/08/18 08:53:35;;;;;;;14.30;7.10;;;;;;;29.50;58.18;100330.35;108999;1258;74018;-63
2023/08/18 08:56:26;;;;;;;13.50;6.40;;;;;;;29.62;58.51;100327.52;109002;1258;57479;-63
2023/08/18 08:59:15;;;;;;;14.50;5.90;;;;;;;30.46;56.32;100323.59;109018;1258;61203;-62
2023/08/18 09:02:03;;;;;;;11.90;5.70;;;;;;;30.85;55.06;100324.91;108993;1258;74069;-64
2023/08/18 09:04:50;;;;;;;11.10;6.40;;;;;;;30.63;54.35;100323.86;109059;1259;67980;-64
2023/08/18 09:07:36;;;;;;;12.00;5.60;;;;;;;30.29;55.45;100323.47;109030;1258;72527;-64
2023/08/18 09:10:23;;;;;;;12.60;5.90;;;;;;;30.03;56.04;100313.63;109033;1259;57851;-63
2023/08/18 09:13:10;;;;;;;12.80;6.50;;;;;;;29.86;56.51;100309.74;109065;1258;60023;-61
2023/08/18 09:15:57;;;;;;;10.60;6.10;;;;;;;29.89;56.80;100300.34;109053;1258;72792;-63
2023/08/18 09:18:45;;;;;;;17.30;6.40;;;;;;;29.86;55.73;100300.69;109037;1259;66382;-62
2023/08/18 09:21:33;;;;;;;12.40;6.10;;;;;;;29.60;56.42;100308.02;108941;1258;71213;-63
2023/08/18 09:24:20;;;;;;;14.50;6.10;;;;;;;29.44;57.01;100306.59;109033;1258;57246;-62
2023/08/18 09:27:08;;;;;;;14.10;6.80;;;;;;;29.29;57.75;100299.93;108937;1258;58968;-65
2023/08/18 09:29:57;;;;;;;11.40;6.10;;;;;;;29.18;58.35;100307.38;108849;1259;73196;-63
2023/08/18 09:32:44;;;;;;;11.30;6.00;;;;;;;29.20;58.62;100305.84;109018;1258;68512;-62
2023/08/18 09:35:34;;;;;;;11.40;5.60;;;;;;;29.32;58.43;100294.91;108970;1258;73534;-64
2023/08/18 09:38:21;;;;;;;13.70;6.20;;;;;;;29.33;58.61;100297.80;108981;1259;57886;-62
2023/08/18 09:41:12;;;;;;;12.70;5.70;;;;;;;29.30;58.50;100301.35;109033;1258;58964;-64
2023/08/18 09:43:58;;;;;;;12.00;6.00;;;;;;;29.21;58.84;100308.93;109052;1258;73797;-63
2023/08/18 09:46:55;;;;;;;10.70;5.50;;;;;;;29.06;59.15;100304.73;109032;1259;68710;-63
2023/08/18 09:49:44;;;;;;;15.40;6.10;;;;;;;28.91;59.45;100310.98;109075;1258;72266;-65
2023/08/18 09:52:33;;;;;;;12.50;7.00;;;;;;;28.72;60.09;100307.01;108975;1259;57832;-66
2023/08/18 09:55:31;;;;;;;20.80;7.30;;;;;;;28.64;60.56;100310.52;109052;1258;59969;-64
2023/08/18 09:58:33;;;;;;;17.50;8.30;;;;;;;28.62;59.63;100311.75;108978;1259;71723;-63
2023/08/18 10:01:21;;;;;;;12.90;6.60;;;;;;;28.67;59.74;100313.83;109017;1258;69101;-61
2023/08/18 10:04:09;;;;;;;12.60;6.00;;;;;;;28.67;59.22;100314.38;109022;1257;71237;-63
2023/08/18 10:06:56;;;;;;;12.60;6.50;;;;;;;28.69;58.88;100320.30;108996;1257;57372;-64
2023/08/18 10:09:44;;;;;;;12.10;6.60;;;;;;;28.65;58.24;100321.86;109101;1257;58764;-65
2023/08/18 10:12:30;;;;;;;10.40;5.90;;;;;;;28.60;57.75;100323.89;109075;1257;71786;-66
2023/08/18 10:15:18;;;;;;;12.60;5.90;;;;;;;28.53;57.45;100327.89;109121;1257;67667;-65
2023/08/18 10:18:09;;;;;;;11.80;6.50;;;;;;;28.36;56.09;100340.05;109004;1260;73741;-66
2023/08/18 10:20:56;;;;;;;15.90;9.40;;;;;;;28.17;57.19;100345.20;109065;1258;58323;-65
2023/08/18 10:23:43;;;;;;;14.30;9.00;;;;;;;28.28;57.60;100346.70;108972;1260;60069;-65
2023/08/18 10:26:32;;;;;;;15.70;11.30;;;;;;;28.28;57.78;100341.08;108974;1260;71736;-66
2023/08/18 10:29:18;;;;;;;15.10;8.10;;;;;;;28.57;58.09;100350.76;108916;1260;67183;-66
2023/08/18 10:32:22;;;;;;;13.40;7.60;;;;;;;28.50;59.04;100358.30;108971;1259;72570;-63
2023/08/18 10:35:28;;;;;;;18.10;6.90;;;;;;;28.14;59.41;100354.78;108965;1260;58769;-61
2023/08/18 10:38:16;;;;;;;15.20;7.80;;;;;;;27.74;60.72;100357.17;108972;1260;59841;-69
2023/08/18 10:41:08;;;;;;;15.00;8.20;;;;;;;27.42;62.02;100352.67;108940;1258;71696;-64
2023/08/18 10:43:58;;;;;;;12.80;7.60;;;;;;;27.22;62.79;100346.31;109014;1258;67798;-65
2023/08/18 10:46:44;;;;;;;14.30;7.90;;;;;;;26.98;63.70;100340.77;108900;1263;72476;-64
2023/08/18 10:49:31;;;;;;;12.50;7.50;;;;;;;26.85;64.78;100340.44;108969;1258;58834;-63
2023/08/18 10:52:20;;;;;;;13.30;7.00;;;;;;;26.67;65.16;100334.33;109042;1258;58514;-66
2023/08/18 10:55:07;;;;;;;16.20;10.00;;;;;;;26.53;65.81;100329.90;108968;1258;74284;-62
2023/08/18 10:57:54;;;;;;;13.00;7.50;;;;;;;26.45;65.71;100326.09;108954;1260;68912;-63
2023/08/18 11:00:40;;;;;;;13.50;7.20;;;;;;;26.36;65.88;100326.11;108944;1260;73347;-61
2023/08/18 11:03:27;;;;;;;12.90;6.80;;;;;;;26.23;66.74;100330.30;108972;1260;57344;-62
2023/08/18 11:06:13;;;;;;;12.60;6.10;;;;;;;25.94;67.55;100325.96;109007;1260;61416;-67
2023/08/18 11:09:00;;;;;;;13.30;7.20;;;;;;;25.69;68.75;100320.79;108856;1262;73633;-64
2023/08/18 11:11:47;;;;;;;15.30;7.10;;;;;;;25.61;69.57;100321.39;108964;1260;67778;-63
2023/08/18 11:14:34;;;;;;;16.10;7.10;;;;;;;25.49;70.05;100322.23;108907;1261;73548;-67
2023/08/18 11:17:20;;;;;;;11.80;7.00;;;;;;;25.47;70.51;100322.08;108924;1260;59498;-63
2023/08/18 11:20:08;;;;;;;13.00;6.40;;;;;;;25.48;70.53;100314.79;108960;1260;61687;-67
2023/08/18 11:22:55;;;;;;;12.30;7.00;;;;;;;25.43;70.60;100321.23;108979;1259;72043;-64
2023/08/18 11:25:41;;;;;;;11.90;6.30;;;;;;;25.48;70.84;100316.41;108847;1259;68040;-69
2023/08/18 11:28:27;;;;;;;13.20;7.90;;;;;;;25.57;70.66;100312.13;108991;1258;72479;-68
2023/08/18 11:31:14;;;;;;;13.70;6.50;;;;;;;25.68;70.36;100313.40;109025;1258;57526;-66
2023/08/18 11:34:01;;;;;;;16.10;7.20;;;;;;;25.76;70.03;100316.54;109004;1258;61374;-64
2023/08/18 11:36:47;;;;;;;16.30;7.40;;;;;;;25.84;69.56;100321.67;108994;1258;73871;-66
2023/08/18 11:39:34;;;;;;;13.90;7.00;;;;;;;25.84;69.71;100322.05;109014;1259;67799;-67
2023/08/18 11:42:22;;;;;;;14.10;7.30;;;;;;;25.81;69.72;100321.71;108954;1258;71293;-66
2023/08/18 11:45:16;;;;;;;14.80;7.50;;;;;;;25.72;70.28;100320.16;108857;1258;57762;-65
2023/08/18 11:48:05;;;;;;;13.90;6.80;;;;;;;25.61;70.86;100316.53;109018;1258;60224;-67
2023/08/18 11:50:56;;;;;;;13.40;7.30;;;;;;;25.62;71.06;100319.75;109007;1258;73977;-66
2023/08/18 11:53:42;;;;;;;13.40;6.90;;;;;;;25.71;71.34;100324.48;109024;1258;69249;-67
2023/08/18 11:56:31;;;;;;;11.60;7.10;;;;;;;25.74;71.01;100329.36;109047;1258;73394;-69
2023/08/18 11:59:22;;;;;;;13.10;7.60;;;;;;;25.75;71.12;100336.95;109229;1257;57210;-67
2023/08/18 12:02:08;;;;;;;15.30;7.50;;;;;;;25.80;71.18;100341.67;109021;1257;60005;-66
2023/08/18 12:04:56;;;;;;;15.00;7.60;;;;;;;25.81;71.19;100341.18;109198;1257;73019;-66
2023/08/18 12:07:42;;;;;;;15.20;8.00;;;;;;;25.87;71.26;100344.61;109138;1257;68849;-67
2023/08/18 12:10:29;;;;;;;16.70;7.90;;;;;;;25.93;71.04;100345.64;108947;1257;71388;-68
2023/08/18 12:13:16;;;;;;;12.60;7.50;;;;;;;25.97;70.80;100345.95;109065;1258;58868;-66
2023/08/18 12:16:02;;;;;;;13.80;6.80;;;;;;;25.96;70.40;100345.25;109020;1257;58866;-68
2023/08/18 12:18:49;;;;;;;14.50;7.30;;;;;;;25.95;70.26;100340.19;109156;1257;73071;-67
2023/08/18 12:21:38;;;;;;;12.70;7.50;;;;;;;25.96;70.24;100341.39;109046;1262;67759;-69
2023/08/18 12:24:24;;;;;;;12.60;7.20;;;;;;;25.99;70.15;100343.77;109103;1257;73468;-68
2023/08/18 12:27:11;;;;;;;13.10;6.20;;;;;;;26.03;69.93;100340.44;109112;1257;57756;-69
2023/08/18 12:29:57;;;;;;;13.40;6.10;;;;;;;26.02;68.35;100341.91;109089;1257;58863;-68
2023/08/18 12:32:45;;;;;;;11.90;6.40;;;;;;;25.98;67.19;100339.20;109082;1257;73861;-67
2023/08/18 12:35:32;;;;;;;10.50;5.90;;;;;;;25.93;67.60;100338.42;109066;1257;67776;-67